KCPS/CPS METAR and TAF weather

Enter ICAO airport designator
Station Type Date Time Source
KCPS METAR 2022/06/28 23:53 UTC NOAA

KCPS 282353Z 19003KT 10SM CLR 28/10 A3016 RMK AO2 SLP209 T02780100 10294 20267 56015


Station Type Date Time Source
KCPS Decoded METAR 2022/06/28 23:53 UTC NOAA

ST LOUIS DOWNTOWN AIRPORT, IL, United States (KCPS) 38-34N 090-09W 126M
Jun 28, 2022 - 07:53 PM EDT / 2022.06.28 2353 UTC
Wind: from the S (190 degrees) at 3 MPH (3 KT):0
Visibility: 10 mile(s):0
Sky conditions: clear
Temperature: 82.0 F (27.8 C)
Dew Point: 50.0 F (10.0 C)
Relative Humidity: 32%
Pressure (altimeter): 30.16 in. Hg (1021 hPa)
Pressure tendency: 0.04 inches (1.5 hPa) lower than three hours ago
ob: KCPS 282353Z 19003KT 10SM CLR 28/10 A3016 RMK AO2 SLP209 T02780100 10294 20267 56015
cycle: 0

Station Type Date Time Source
KCPS TAF 2022/06/28 18:22 UTC NOAA

TAF KCPS 281720Z 2818/2918 19003KT P6SM SKC

Example: see airport list